Guaira, Brazil
Current Conditions -  °F | °C
As of 7:00 PM on Thursday 18 Dec 2014 (Local Time) from SBRP Reporting Station
Few Clouds Few Clouds  
Wind Chill: 82°   Ceiling: Unl
Heat Index: 84°   Visibility: 6mi
Dew Point: 64°   Wind: 8mph
Humidity: 54%   Direction: 40°NE
Pressure: 29.8"   Gusts: NA
Location:  20.33°S, 48.32°W
Report Text: SBRP 182100Z 04007KT 9999 FEW040 28/18 Q1009
Loading
Personal Weather Stations






























Interactive Weather Map New forecast layout! Learn more

10-Day Weather Forecast

Advertisements
Track Severe Weather on mobile